sensor_id;sensor_type;location;lat;lon;timestamp;temperature;humidity
20929;DHT22;21895;47.072;15.132;2024-02-14T00:02:14;1.20;99.90
20929;DHT22;21895;47.072;15.132;2024-02-14T00:04:41;1.30;99.90
20929;DHT22;21895;47.072;15.132;2024-02-14T00:07:08;1.50;99.90
20929;DHT22;21895;47.072;15.132;2024-02-14T00:09:35;1.50;99.90
20929;DHT22;21895;47.072;15.132;2024-02-14T00:12:02;1.30;99.90
20929;DHT22;21895;47.072;15.132;2024-02-14T00:14:28;1.00;99.90
20929;DHT22;21895;47.072;15.132;2024-02-14T00:16:55;0.90;99.90
20929;DHT22;21895;47.072;15.132;2024-02-14T00:19:22;0.80;99.90
20929;DHT22;21895;47.072;15.132;2024-02-14T00:21:49;0.80;99.90
20929;DHT22;21895;47.072;15.132;2024-02-14T00:24:16;0.80;99.90
20929;DHT22;21895;47.072;15.132;2024-02-14T00:26:45;0.80;99.90
20929;DHT22;21895;47.072;15.132;2024-02-14T00:29:12;0.80;99.90
20929;DHT22;21895;47.072;15.132;2024-02-14T00:31:38;0.80;99.90
20929;DHT22;21895;47.072;15.132;2024-02-14T00:34:05;0.70;99.90
20929;DHT22;21895;47.072;15.132;2024-02-14T00:36:32;0.60;99.90
20929;DHT22;21895;47.072;15.132;2024-02-14T00:38:59;0.60;99.90
20929;DHT22;21895;47.072;15.132;2024-02-14T00:41:25;0.40;99.90
20929;DHT22;21895;47.072;15.132;2024-02-14T00:43:56;0.30;99.90
20929;DHT22;21895;47.072;15.132;2024-02-14T00:46:23;0.30;99.90
20929;DHT22;21895;47.072;15.132;2024-02-14T00:48:49;0.20;99.90
20929;DHT22;21895;47.072;15.132;2024-02-14T00:51:16;0.20;99.90
20929;DHT22;21895;47.072;15.132;2024-02-14T00:53:43;0.10;99.90
20929;DHT22;21895;47.072;15.132;2024-02-14T00:56:09;-0.20;99.90
20929;DHT22;21895;47.072;15.132;2024-02-14T00:58:36;-0.10;99.90
20929;DHT22;21895;47.072;15.132;2024-02-14T01:01:02;0.30;99.90
20929;DHT22;21895;47.072;15.132;2024-02-14T01:03:29;0.40;99.90
20929;DHT22;21895;47.072;15.132;2024-02-14T01:05:56;0.10;99.90
20929;DHT22;21895;47.072;15.132;2024-02-14T01:08:23;-0.10;99.90
20929;DHT22;21895;47.072;15.132;2024-02-14T01:10:49;-0.20;99.90
20929;DHT22;21895;47.072;15.132;2024-02-14T01:13:18;-0.10;99.90
20929;DHT22;21895;47.072;15.132;2024-02-14T01:15:45;0.00;99.90
20929;DHT22;21895;47.072;15.132;2024-02-14T01:18:11;-0.10;99.90
20929;DHT22;21895;47.072;15.132;2024-02-14T01:20:38;-0.10;99.90
20929;DHT22;21895;47.072;15.132;2024-02-14T01:23:05;0.30;99.90
20929;DHT22;21895;47.072;15.132;2024-02-14T01:25:32;0.40;99.90
20929;DHT22;21895;47.072;15.132;2024-02-14T01:27:59;0.40;99.90
20929;DHT22;21895;47.072;15.132;2024-02-14T01:30:26;0.40;99.90
20929;DHT22;21895;47.072;15.132;2024-02-14T01:32:52;0.40;99.90
20929;DHT22;21895;47.072;15.132;2024-02-14T01:35:19;0.50;99.90
20929;DHT22;21895;47.072;15.132;2024-02-14T01:37:46;0.50;99.90
20929;DHT22;21895;47.072;15.132;2024-02-14T01:40:13;0.60;99.90
20929;DHT22;21895;47.072;15.132;2024-02-14T01:42:39;0.40;99.90
20929;DHT22;21895;47.072;15.132;2024-02-14T01:45:07;0.20;99.90
20929;DHT22;21895;47.072;15.132;2024-02-14T01:47:34;0.10;99.90
20929;DHT22;21895;47.072;15.132;2024-02-14T01:50:00;-0.10;99.90
20929;DHT22;21895;47.072;15.132;2024-02-14T01:52:27;0.00;99.90
20929;DHT22;21895;47.072;15.132;2024-02-14T01:54:54;0.00;99.90
20929;DHT22;21895;47.072;15.132;2024-02-14T01:57:21;0.00;99.90
20929;DHT22;21895;47.072;15.132;2024-02-14T01:59:49;-0.10;99.90
20929;DHT22;21895;47.072;15.132;2024-02-14T02:02:18;-0.10;99.90
20929;DHT22;21895;47.072;15.132;2024-02-14T02:04:45;-0.20;99.90
20929;DHT22;21895;47.072;15.132;2024-02-14T02:07:12;-0.10;99.90
20929;DHT22;21895;47.072;15.132;2024-02-14T02:09:39;-0.20;99.90
20929;DHT22;21895;47.072;15.132;2024-02-14T02:12:06;-0.30;99.90
20929;DHT22;21895;47.072;15.132;2024-02-14T02:14:33;-0.20;99.90
20929;DHT22;21895;47.072;15.132;2024-02-14T02:17:00;0.00;99.90
20929;DHT22;21895;47.072;15.132;2024-02-14T02:19:27;0.10;99.90
20929;DHT22;21895;47.072;15.132;2024-02-14T02:21:54;0.10;99.90
20929;DHT22;21895;47.072;15.132;2024-02-14T02:24:21;0.00;99.90
20929;DHT22;21895;47.072;15.132;2024-02-14T02:26:48;0.00;99.90
20929;DHT22;21895;47.072;15.132;2024-02-14T02:29:14;0.00;99.90
20929;DHT22;21895;47.072;15.132;2024-02-14T02:31:42;0.00;99.90
20929;DHT22;21895;47.072;15.132;2024-02-14T02:34:08;0.00;99.90
20929;DHT22;21895;47.072;15.132;2024-02-14T02:36:37;0.00;99.90
20929;DHT22;21895;47.072;15.132;2024-02-14T02:39:04;0.10;99.90
20929;DHT22;21895;47.072;15.132;2024-02-14T02:41:33;0.00;99.90
20929;DHT22;21895;47.072;15.132;2024-02-14T02:44:00;-0.10;99.90
20929;DHT22;21895;47.072;15.132;2024-02-14T02:46:27;-0.40;99.90
20929;DHT22;21895;47.072;15.132;2024-02-14T02:48:55;-0.60;99.90
20929;DHT22;21895;47.072;15.132;2024-02-14T02:51:24;-0.70;99.90
20929;DHT22;21895;47.072;15.132;2024-02-14T02:53:51;-0.80;99.90
20929;DHT22;21895;47.072;15.132;2024-02-14T02:56:18;-0.70;99.90
20929;DHT22;21895;47.072;15.132;2024-02-14T02:58:44;-0.80;99.90
20929;DHT22;21895;47.072;15.132;2024-02-14T03:01:11;-0.70;99.90
20929;DHT22;21895;47.072;15.132;2024-02-14T03:03:38;-0.60;99.90
20929;DHT22;21895;47.072;15.132;2024-02-14T03:06:05;-0.60;99.90
20929;DHT22;21895;47.072;15.132;2024-02-14T03:08:32;-0.70;99.90
20929;DHT22;21895;47.072;15.132;2024-02-14T03:11:07;-0.70;99.90
20929;DHT22;21895;47.072;15.132;2024-02-14T03:13:33;-0.80;99.90
20929;DHT22;21895;47.072;15.132;2024-02-14T03:16:01;-0.70;99.90
20929;DHT22;21895;47.072;15.132;2024-02-14T03:18:28;-0.70;99.90
20929;DHT22;21895;47.072;15.132;2024-02-14T03:20:55;-0.90;99.90
20929;DHT22;21895;47.072;15.132;2024-02-14T03:23:22;-0.90;99.90
20929;DHT22;21895;47.072;15.132;2024-02-14T03:25:49;-0.80;99.90
20929;DHT22;21895;47.072;15.132;2024-02-14T03:28:17;-0.80;99.90
20929;DHT22;21895;47.072;15.132;2024-02-14T03:30:44;-0.70;99.90
20929;DHT22;21895;47.072;15.132;2024-02-14T03:33:10;-0.70;99.90
20929;DHT22;21895;47.072;15.132;2024-02-14T03:35:37;-0.60;99.90
20929;DHT22;21895;47.072;15.132;2024-02-14T03:38:04;-0.70;99.90
20929;DHT22;21895;47.072;15.132;2024-02-14T03:40:34;-0.70;99.90
20929;DHT22;21895;47.072;15.132;2024-02-14T03:43:02;-0.80;99.90
20929;DHT22;21895;47.072;15.132;2024-02-14T03:45:28;-0.70;99.90
20929;DHT22;21895;47.072;15.132;2024-02-14T03:47:56;-0.60;99.90
20929;DHT22;21895;47.072;15.132;2024-02-14T03:50:22;-0.60;99.90
20929;DHT22;21895;47.072;15.132;2024-02-14T03:52:49;-0.60;99.90
20929;DHT22;21895;47.072;15.132;2024-02-14T03:55:16;-0.80;99.90
20929;DHT22;21895;47.072;15.132;2024-02-14T03:57:45;-1.10;99.90
20929;DHT22;21895;47.072;15.132;2024-02-14T04:00:13;-1.30;99.90
20929;DHT22;21895;47.072;15.132;2024-02-14T04:02:40;-1.30;99.90
20929;DHT22;21895;47.072;15.132;2024-02-14T04:05:08;-1.20;99.90
20929;DHT22;21895;47.072;15.132;2024-02-14T04:07:36;-1.20;99.90
20929;DHT22;21895;47.072;15.132;2024-02-14T04:10:03;-1.20;99.90
20929;DHT22;21895;47.072;15.132;2024-02-14T04:12:30;-1.10;99.90
20929;DHT22;21895;47.072;15.132;2024-02-14T04:14:57;-1.00;99.90
20929;DHT22;21895;47.072;15.132;2024-02-14T04:17:24;-1.10;99.90
20929;DHT22;21895;47.072;15.132;2024-02-14T04:19:51;-1.00;99.90
20929;DHT22;21895;47.072;15.132;2024-02-14T04:22:17;-1.10;99.90
20929;DHT22;21895;47.072;15.132;2024-02-14T04:24:45;-1.10;99.90
20929;DHT22;21895;47.072;15.132;2024-02-14T04:27:11;-1.20;99.90
20929;DHT22;21895;47.072;15.132;2024-02-14T04:29:38;-1.20;99.90
20929;DHT22;21895;47.072;15.132;2024-02-14T04:32:05;-1.10;99.90
20929;DHT22;21895;47.072;15.132;2024-02-14T04:34:31;-1.40;99.90
20929;DHT22;21895;47.072;15.132;2024-02-14T04:36:58;-1.50;99.90
20929;DHT22;21895;47.072;15.132;2024-02-14T04:39:25;-1.50;99.90
20929;DHT22;21895;47.072;15.132;2024-02-14T04:41:52;-1.50;99.90
20929;DHT22;21895;47.072;15.132;2024-02-14T04:44:31;-1.40;99.90
20929;DHT22;21895;47.072;15.132;2024-02-14T04:46:59;-1.40;99.90
20929;DHT22;21895;47.072;15.132;2024-02-14T04:49:27;-1.40;99.90
20929;DHT22;21895;47.072;15.132;2024-02-14T04:51:57;-1.30;99.90
20929;DHT22;21895;47.072;15.132;2024-02-14T04:54:24;-1.30;99.90
20929;DHT22;21895;47.072;15.132;2024-02-14T04:56:51;-1.30;99.90
20929;DHT22;21895;47.072;15.132;2024-02-14T04:59:24;-1.40;99.90
20929;DHT22;21895;47.072;15.132;2024-02-14T05:01:50;-1.30;99.90
20929;DHT22;21895;47.072;15.132;2024-02-14T05:04:19;-1.30;99.90
20929;DHT22;21895;47.072;15.132;2024-02-14T05:06:46;-1.30;99.90
20929;DHT22;21895;47.072;15.132;2024-02-14T05:09:13;-1.20;99.90
20929;DHT22;21895;47.072;15.132;2024-02-14T05:11:41;-1.30;99.90
20929;DHT22;21895;47.072;15.132;2024-02-14T05:14:08;-1.40;99.90
20929;DHT22;21895;47.072;15.132;2024-02-14T05:16:34;-1.40;99.90
20929;DHT22;21895;47.072;15.132;2024-02-14T05:19:01;-1.40;99.90
20929;DHT22;21895;47.072;15.132;2024-02-14T05:21:28;-1.50;99.90
20929;DHT22;21895;47.072;15.132;2024-02-14T05:23:56;-1.50;99.90
20929;DHT22;21895;47.072;15.132;2024-02-14T05:26:22;-1.60;99.90
20929;DHT22;21895;47.072;15.132;2024-02-14T05:28:49;-1.60;99.90
20929;DHT22;21895;47.072;15.132;2024-02-14T05:31:15;-1.70;99.90
20929;DHT22;21895;47.072;15.132;2024-02-14T05:33:42;-1.70;99.90
20929;DHT22;21895;47.072;15.132;2024-02-14T05:36:09;-2.00;99.90
20929;DHT22;21895;47.072;15.132;2024-02-14T05:38:36;-2.20;99.90
20929;DHT22;21895;47.072;15.132;2024-02-14T05:41:03;-2.20;99.90
20929;DHT22;21895;47.072;15.132;2024-02-14T05:43:29;-2.00;99.90
20929;DHT22;21895;47.072;15.132;2024-02-14T05:45:56;-1.90;99.90
20929;DHT22;21895;47.072;15.132;2024-02-14T05:48:22;-1.70;99.90
20929;DHT22;21895;47.072;15.132;2024-02-14T05:50:50;-1.60;99.90
20929;DHT22;21895;47.072;15.132;2024-02-14T05:53:17;-1.50;99.90
20929;DHT22;21895;47.072;15.132;2024-02-14T05:55:43;-1.60;99.90
20929;DHT22;21895;47.072;15.132;2024-02-14T05:58:10;-1.60;99.90
20929;DHT22;21895;47.072;15.132;2024-02-14T06:00:38;-1.50;99.90
20929;DHT22;21895;47.072;15.132;2024-02-14T06:03:05;-1.70;99.90
20929;DHT22;21895;47.072;15.132;2024-02-14T06:05:32;-1.70;99.90
20929;DHT22;21895;47.072;15.132;2024-02-14T06:07:59;-1.70;99.90
20929;DHT22;21895;47.072;15.132;2024-02-14T06:10:25;-1.70;99.90
20929;DHT22;21895;47.072;15.132;2024-02-14T06:12:52;-1.80;99.90
20929;DHT22;21895;47.072;15.132;2024-02-14T06:15:23;-1.80;99.90
20929;DHT22;21895;47.072;15.132;2024-02-14T06:17:50;-1.70;99.90
20929;DHT22;21895;47.072;15.132;2024-02-14T06:20:16;-1.70;99.90
20929;DHT22;21895;47.072;15.132;2024-02-14T06:22:43;-1.80;99.90
20929;DHT22;21895;47.072;15.132;2024-02-14T06:25:22;-1.70;99.90
20929;DHT22;21895;47.072;15.132;2024-02-14T06:27:49;-1.60;99.90
20929;DHT22;21895;47.072;15.132;2024-02-14T06:30:16;-1.70;99.90
20929;DHT22;21895;47.072;15.132;2024-02-14T06:32:43;-1.70;99.90
20929;DHT22;21895;47.072;15.132;2024-02-14T06:35:10;-1.50;99.90
20929;DHT22;21895;47.072;15.132;2024-02-14T06:37:37;-1.30;99.90
20929;DHT22;21895;47.072;15.132;2024-02-14T06:40:18;-1.10;99.90
20929;DHT22;21895;47.072;15.132;2024-02-14T06:42:45;-1.20;99.90
20929;DHT22;21895;47.072;15.132;2024-02-14T06:45:11;-1.00;99.90
20929;DHT22;21895;47.072;15.132;2024-02-14T06:47:38;-0.70;99.90
20929;DHT22;21895;47.072;15.132;2024-02-14T06:50:06;-0.50;99.90
20929;DHT22;21895;47.072;15.132;2024-02-14T06:52:37;-0.30;99.90
20929;DHT22;21895;47.072;15.132;2024-02-14T06:55:04;-0.20;99.90
20929;DHT22;21895;47.072;15.132;2024-02-14T06:57:30;0.00;99.90
20929;DHT22;21895;47.072;15.132;2024-02-14T06:59:57;0.10;99.90
20929;DHT22;21895;47.072;15.132;2024-02-14T07:02:24;0.20;99.90
20929;DHT22;21895;47.072;15.132;2024-02-14T07:04:56;0.30;99.90
20929;DHT22;21895;47.072;15.132;2024-02-14T07:07:22;0.50;99.90
20929;DHT22;21895;47.072;15.132;2024-02-14T07:09:49;0.60;99.90
20929;DHT22;21895;47.072;15.132;2024-02-14T07:12:15;0.60;99.90
20929;DHT22;21895;47.072;15.132;2024-02-14T07:14:42;0.70;99.90
20929;DHT22;21895;47.072;15.132;2024-02-14T07:17:09;0.80;99.90
20929;DHT22;21895;47.072;15.132;2024-02-14T07:19:36;1.00;99.90
20929;DHT22;21895;47.072;15.132;2024-02-14T07:22:04;1.30;99.90
20929;DHT22;21895;47.072;15.132;2024-02-14T07:24:31;1.50;99.90
20929;DHT22;21895;47.072;15.132;2024-02-14T07:26:57;1.70;99.90
20929;DHT22;21895;47.072;15.132;2024-02-14T07:29:24;1.80;99.90
20929;DHT22;21895;47.072;15.132;2024-02-14T07:31:51;2.00;99.90
20929;DHT22;21895;47.072;15.132;2024-02-14T07:34:18;2.20;99.90
20929;DHT22;21895;47.072;15.132;2024-02-14T07:36:45;2.40;99.90
20929;DHT22;21895;47.072;15.132;2024-02-14T07:39:12;2.50;99.90
20929;DHT22;21895;47.072;15.132;2024-02-14T07:41:39;2.60;99.90
20929;DHT22;21895;47.072;15.132;2024-02-14T07:44:05;2.80;99.90
20929;DHT22;21895;47.072;15.132;2024-02-14T07:46:32;3.00;99.90
20929;DHT22;21895;47.072;15.132;2024-02-14T07:48:59;3.20;99.90
20929;DHT22;21895;47.072;15.132;2024-02-14T07:51:27;3.30;99.90
20929;DHT22;21895;47.072;15.132;2024-02-14T07:53:54;3.50;99.90
20929;DHT22;21895;47.072;15.132;2024-02-14T07:56:21;3.50;99.90
20929;DHT22;21895;47.072;15.132;2024-02-14T07:58:48;3.60;99.90
20929;DHT22;21895;47.072;15.132;2024-02-14T08:01:15;3.50;99.90
20929;DHT22;21895;47.072;15.132;2024-02-14T08:03:42;3.50;99.90
20929;DHT22;21895;47.072;15.132;2024-02-14T08:06:09;3.50;99.90
20929;DHT22;21895;47.072;15.132;2024-02-14T08:08:35;3.60;99.90
20929;DHT22;21895;47.072;15.132;2024-02-14T08:11:02;3.80;99.90
20929;DHT22;21895;47.072;15.132;2024-02-14T08:13:28;3.80;99.90
20929;DHT22;21895;47.072;15.132;2024-02-14T08:15:55;3.90;99.90
20929;DHT22;21895;47.072;15.132;2024-02-14T08:18:22;4.20;99.90
20929;DHT22;21895;47.072;15.132;2024-02-14T08:20:49;4.40;99.90
20929;DHT22;21895;47.072;15.132;2024-02-14T08:23:16;4.50;99.90
20929;DHT22;21895;47.072;15.132;2024-02-14T08:25:46;4.70;99.90
20929;DHT22;21895;47.072;15.132;2024-02-14T08:28:14;4.60;99.90
20929;DHT22;21895;47.072;15.132;2024-02-14T08:30:41;4.70;99.90
20929;DHT22;21895;47.072;15.132;2024-02-14T08:33:07;4.90;99.90
20929;DHT22;21895;47.072;15.132;2024-02-14T08:35:34;5.10;99.90
20929;DHT22;21895;47.072;15.132;2024-02-14T08:38:08;5.20;99.90
20929;DHT22;21895;47.072;15.132;2024-02-14T08:40:35;5.50;99.90
20929;DHT22;21895;47.072;15.132;2024-02-14T08:43:02;5.60;99.90
20929;DHT22;21895;47.072;15.132;2024-02-14T08:45:30;5.80;99.90
20929;DHT22;21895;47.072;15.132;2024-02-14T08:47:57;6.00;99.90
20929;DHT22;21895;47.072;15.132;2024-02-14T08:50:24;6.20;99.90
20929;DHT22;21895;47.072;15.132;2024-02-14T08:52:50;6.20;99.90
20929;DHT22;21895;47.072;15.132;2024-02-14T08:55:17;6.40;99.60
20929;DHT22;21895;47.072;15.132;2024-02-14T08:57:44;6.50;99.40
20929;DHT22;21895;47.072;15.132;2024-02-14T09:00:11;6.60;99.90
20929;DHT22;21895;47.072;15.132;2024-02-14T09:02:40;6.80;99.10
20929;DHT22;21895;47.072;15.132;2024-02-14T09:05:07;7.00;99.30
20929;DHT22;21895;47.072;15.132;2024-02-14T09:07:35;7.10;98.10
20929;DHT22;21895;47.072;15.132;2024-02-14T09:10:02;7.20;97.50
20929;DHT22;21895;47.072;15.132;2024-02-14T09:12:31;7.30;97.70
20929;DHT22;21895;47.072;15.132;2024-02-14T09:14:58;7.40;96.60
20929;DHT22;21895;47.072;15.132;2024-02-14T09:17:25;7.40;96.00
20929;DHT22;21895;47.072;15.132;2024-02-14T09:19:51;7.50;95.30
20929;DHT22;21895;47.072;15.132;2024-02-14T09:22:18;7.60;95.30
20929;DHT22;21895;47.072;15.132;2024-02-14T09:24:48;7.80;94.30
20929;DHT22;21895;47.072;15.132;2024-02-14T09:27:14;7.90;94.50
20929;DHT22;21895;47.072;15.132;2024-02-14T09:29:41;7.90;94.50
20929;DHT22;21895;47.072;15.132;2024-02-14T09:32:10;8.00;94.80
20929;DHT22;21895;47.072;15.132;2024-02-14T09:34:37;8.20;93.90
20929;DHT22;21895;47.072;15.132;2024-02-14T09:37:04;8.30;93.90
20929;DHT22;21895;47.072;15.132;2024-02-14T09:39:32;8.30;92.70
20929;DHT22;21895;47.072;15.132;2024-02-14T09:42:06;8.30;92.10
20929;DHT22;21895;47.072;15.132;2024-02-14T09:44:37;8.30;92.90
20929;DHT22;21895;47.072;15.132;2024-02-14T09:47:06;8.30;93.00
20929;DHT22;21895;47.072;15.132;2024-02-14T09:49:35;8.40;93.10
20929;DHT22;21895;47.072;15.132;2024-02-14T09:52:09;8.50;93.30
20929;DHT22;21895;47.072;15.132;2024-02-14T09:54:39;8.70;93.30
20929;DHT22;21895;47.072;15.132;2024-02-14T09:57:06;8.90;93.20
20929;DHT22;21895;47.072;15.132;2024-02-14T09:59:35;9.00;93.00
20929;DHT22;21895;47.072;15.132;2024-02-14T10:02:03;9.10;92.60
20929;DHT22;21895;47.072;15.132;2024-02-14T10:04:30;9.20;92.30
20929;DHT22;21895;47.072;15.132;2024-02-14T10:06:56;9.30;92.20
20929;DHT22;21895;47.072;15.132;2024-02-14T10:09:25;9.50;92.30
20929;DHT22;21895;47.072;15.132;2024-02-14T10:11:53;9.50;92.30
20929;DHT22;21895;47.072;15.132;2024-02-14T10:14:20;9.50;91.60
20929;DHT22;21895;47.072;15.132;2024-02-14T10:16:49;9.40;92.20
20929;DHT22;21895;47.072;15.132;2024-02-14T10:19:17;9.50;91.70
20929;DHT22;21895;47.072;15.132;2024-02-14T10:21:56;9.60;91.50
20929;DHT22;21895;47.072;15.132;2024-02-14T10:24:25;9.70;91.10
20929;DHT22;21895;47.072;15.132;2024-02-14T10:26:52;9.90;90.60
20929;DHT22;21895;47.072;15.132;2024-02-14T10:29:20;9.90;90.90
20929;DHT22;21895;47.072;15.132;2024-02-14T10:31:49;10.00;90.70
20929;DHT22;21895;47.072;15.132;2024-02-14T10:34:16;10.00;90.30
20929;DHT22;21895;47.072;15.132;2024-02-14T10:36:45;10.10;88.80
20929;DHT22;21895;47.072;15.132;2024-02-14T10:39:13;10.10;89.20
20929;DHT22;21895;47.072;15.132;2024-02-14T10:41:41;10.20;88.60
20929;DHT22;21895;47.072;15.132;2024-02-14T10:44:09;10.20;88.30
20929;DHT22;21895;47.072;15.132;2024-02-14T10:46:37;10.20;88.00
20929;DHT22;21895;47.072;15.132;2024-02-14T10:49:06;10.20;87.40
20929;DHT22;21895;47.072;15.132;2024-02-14T10:51:38;10.40;86.00
20929;DHT22;21895;47.072;15.132;2024-02-14T10:54:13;10.50;85.60
20929;DHT22;21895;47.072;15.132;2024-02-14T10:56:47;10.50;86.00
20929;DHT22;21895;47.072;15.132;2024-02-14T10:59:23;10.70;85.00
20929;DHT22;21895;47.072;15.132;2024-02-14T11:01:52;10.70;85.40
20929;DHT22;21895;47.072;15.132;2024-02-14T11:04:21;10.80;83.90
20929;DHT22;21895;47.072;15.132;2024-02-14T11:06:51;10.90;83.60
20929;DHT22;21895;47.072;15.132;2024-02-14T11:09:21;11.10;82.70
20929;DHT22;21895;47.072;15.132;2024-02-14T11:11:48;11.00;84.90
20929;DHT22;21895;47.072;15.132;2024-02-14T11:14:16;11.00;84.70
20929;DHT22;21895;47.072;15.132;2024-02-14T11:16:45;11.10;84.80
20929;DHT22;21895;47.072;15.132;2024-02-14T11:19:17;11.10;83.50
20929;DHT22;21895;47.072;15.132;2024-02-14T11:21:46;11.30;83.00
20929;DHT22;21895;47.072;15.132;2024-02-14T11:24:15;11.40;83.00
20929;DHT22;21895;47.072;15.132;2024-02-14T11:26:51;11.40;82.00
20929;DHT22;21895;47.072;15.132;2024-02-14T11:29:20;11.40;82.30
20929;DHT22;21895;47.072;15.132;2024-02-14T11:31:58;11.30;82.70
20929;DHT22;21895;47.072;15.132;2024-02-14T11:34:28;11.40;82.50
20929;DHT22;21895;47.072;15.132;2024-02-14T11:37:04;11.40;81.50
20929;DHT22;21895;47.072;15.132;2024-02-14T11:39:33;11.40;82.10
20929;DHT22;21895;47.072;15.132;2024-02-14T11:42:00;11.40;83.70
20929;DHT22;21895;47.072;15.132;2024-02-14T11:44:27;11.60;83.90
20929;DHT22;21895;47.072;15.132;2024-02-14T11:46:54;11.60;82.20
20929;DHT22;21895;47.072;15.132;2024-02-14T11:49:21;11.50;82.30
20929;DHT22;21895;47.072;15.132;2024-02-14T11:51:49;11.60;82.80
20929;DHT22;21895;47.072;15.132;2024-02-14T11:54:15;11.60;84.00
20929;DHT22;21895;47.072;15.132;2024-02-14T11:56:44;11.50;83.30
20929;DHT22;21895;47.072;15.132;2024-02-14T11:59:10;11.50;84.20
20929;DHT22;21895;47.072;15.132;2024-02-14T12:01:38;11.70;83.30
20929;DHT22;21895;47.072;15.132;2024-02-14T12:04:06;11.70;83.80
20929;DHT22;21895;47.072;15.132;2024-02-14T12:06:35;11.70;82.60
20929;DHT22;21895;47.072;15.132;2024-02-14T12:09:03;11.60;82.50
20929;DHT22;21895;47.072;15.132;2024-02-14T12:11:32;11.60;81.40
20929;DHT22;21895;47.072;15.132;2024-02-14T12:14:03;11.90;81.40
20929;DHT22;21895;47.072;15.132;2024-02-14T12:16:31;12.00;78.40
20929;DHT22;21895;47.072;15.132;2024-02-14T12:19:08;11.90;78.50
20929;DHT22;21895;47.072;15.132;2024-02-14T12:21:42;11.80;77.20
20929;DHT22;21895;47.072;15.132;2024-02-14T12:24:14;11.90;76.90
20929;DHT22;21895;47.072;15.132;2024-02-14T12:26:42;11.90;79.40
20929;DHT22;21895;47.072;15.132;2024-02-14T12:29:11;11.90;77.90
20929;DHT22;21895;47.072;15.132;2024-02-14T12:31:39;12.00;78.40
20929;DHT22;21895;47.072;15.132;2024-02-14T12:34:05;12.00;78.80
20929;DHT22;21895;47.072;15.132;2024-02-14T12:36:33;12.00;78.60
20929;DHT22;21895;47.072;15.132;2024-02-14T12:39:01;12.00;79.40
20929;DHT22;21895;47.072;15.132;2024-02-14T12:41:29;12.00;78.50
20929;DHT22;21895;47.072;15.132;2024-02-14T12:44:00;12.00;76.70
20929;DHT22;21895;47.072;15.132;2024-02-14T12:46:27;12.00;77.80
20929;DHT22;21895;47.072;15.132;2024-02-14T12:48:54;12.00;75.80
20929;DHT22;21895;47.072;15.132;2024-02-14T12:51:21;12.10;76.70
20929;DHT22;21895;47.072;15.132;2024-02-14T12:53:49;12.00;75.70
20929;DHT22;21895;47.072;15.132;2024-02-14T12:56:16;12.00;74.70
20929;DHT22;21895;47.072;15.132;2024-02-14T12:58:43;12.00;75.20
20929;DHT22;21895;47.072;15.132;2024-02-14T13:01:10;11.90;74.10
20929;DHT22;21895;47.072;15.132;2024-02-14T13:03:38;12.00;73.20
20929;DHT22;21895;47.072;15.132;2024-02-14T13:06:05;12.10;72.10
20929;DHT22;21895;47.072;15.132;2024-02-14T13:08:32;12.00;73.00
20929;DHT22;21895;47.072;15.132;2024-02-14T13:10:59;11.90;72.30
20929;DHT22;21895;47.072;15.132;2024-02-14T13:13:25;12.00;73.60
20929;DHT22;21895;47.072;15.132;2024-02-14T13:15:52;11.90;73.10
20929;DHT22;21895;47.072;15.132;2024-02-14T13:18:19;11.80;73.60
20929;DHT22;21895;47.072;15.132;2024-02-14T13:20:46;11.80;73.50
20929;DHT22;21895;47.072;15.132;2024-02-14T13:23:15;11.80;74.30
20929;DHT22;21895;47.072;15.132;2024-02-14T13:25:42;11.70;75.30
20929;DHT22;21895;47.072;15.132;2024-02-14T13:28:08;11.70;74.70
20929;DHT22;21895;47.072;15.132;2024-02-14T13:30:35;11.90;75.20
20929;DHT22;21895;47.072;15.132;2024-02-14T13:33:04;11.90;74.90
20929;DHT22;21895;47.072;15.132;2024-02-14T13:35:31;11.90;74.80
20929;DHT22;21895;47.072;15.132;2024-02-14T13:38:04;12.00;74.20
20929;DHT22;21895;47.072;15.132;2024-02-14T13:40:35;11.90;75.80
20929;DHT22;21895;47.072;15.132;2024-02-14T13:43:02;11.80;74.70
20929;DHT22;21895;47.072;15.132;2024-02-14T13:45:43;11.80;74.80
20929;DHT22;21895;47.072;15.132;2024-02-14T13:48:11;11.70;74.60
20929;DHT22;21895;47.072;15.132;2024-02-14T13:50:38;11.70;74.50
20929;DHT22;21895;47.072;15.132;2024-02-14T13:53:08;11.80;74.60
20929;DHT22;21895;47.072;15.132;2024-02-14T13:55:35;11.90;75.20
20929;DHT22;21895;47.072;15.132;2024-02-14T13:58:01;12.10;72.80
20929;DHT22;21895;47.072;15.132;2024-02-14T14:00:28;12.10;74.40
20929;DHT22;21895;47.072;15.132;2024-02-14T14:02:55;12.00;73.80
20929;DHT22;21895;47.072;15.132;2024-02-14T14:05:22;12.00;73.70
20929;DHT22;21895;47.072;15.132;2024-02-14T14:07:49;12.20;74.10
20929;DHT22;21895;47.072;15.132;2024-02-14T14:10:27;12.10;73.80
20929;DHT22;21895;47.072;15.132;2024-02-14T14:12:55;12.10;74.40
20929;DHT22;21895;47.072;15.132;2024-02-14T14:15:22;12.10;74.30
20929;DHT22;21895;47.072;15.132;2024-02-14T14:17:50;12.10;73.60
20929;DHT22;21895;47.072;15.132;2024-02-14T14:20:18;12.00;74.70
20929;DHT22;21895;47.072;15.132;2024-02-14T14:22:46;11.80;73.20
20929;DHT22;21895;47.072;15.132;2024-02-14T14:25:12;11.70;74.20
20929;DHT22;21895;47.072;15.132;2024-02-14T14:27:39;11.70;75.50
20929;DHT22;21895;47.072;15.132;2024-02-14T14:30:06;11.70;75.60
20929;DHT22;21895;47.072;15.132;2024-02-14T14:32:33;11.60;76.80
20929;DHT22;21895;47.072;15.132;2024-02-14T14:35:00;11.70;75.80
20929;DHT22;21895;47.072;15.132;2024-02-14T14:37:27;11.80;75.60
20929;DHT22;21895;47.072;15.132;2024-02-14T14:39:54;11.70;75.60
20929;DHT22;21895;47.072;15.132;2024-02-14T14:42:22;11.60;75.40
20929;DHT22;21895;47.072;15.132;2024-02-14T14:44:49;11.60;75.50
20929;DHT22;21895;47.072;15.132;2024-02-14T14:47:16;11.50;75.00
20929;DHT22;21895;47.072;15.132;2024-02-14T14:49:44;11.40;75.20
20929;DHT22;21895;47.072;15.132;2024-02-14T14:52:11;11.40;75.80
20929;DHT22;21895;47.072;15.132;2024-02-14T14:54:37;11.30;76.50
20929;DHT22;21895;47.072;15.132;2024-02-14T14:57:04;11.20;77.40
20929;DHT22;21895;47.072;15.132;2024-02-14T14:59:35;11.10;77.50
20929;DHT22;21895;47.072;15.132;2024-02-14T15:02:02;11.10;77.80
20929;DHT22;21895;47.072;15.132;2024-02-14T15:04:29;11.00;78.10
20929;DHT22;21895;47.072;15.132;2024-02-14T15:06:55;11.00;79.10
20929;DHT22;21895;47.072;15.132;2024-02-14T15:09:22;10.90;79.30
20929;DHT22;21895;47.072;15.132;2024-02-14T15:11:49;10.90;80.30
20929;DHT22;21895;47.072;15.132;2024-02-14T15:14:16;10.90;79.90
20929;DHT22;21895;47.072;15.132;2024-02-14T15:16:43;10.80;82.80
20929;DHT22;21895;47.072;15.132;2024-02-14T15:19:10;10.80;83.10
20929;DHT22;21895;47.072;15.132;2024-02-14T15:21:37;10.70;85.10
20929;DHT22;21895;47.072;15.132;2024-02-14T15:24:04;10.70;86.40
20929;DHT22;21895;47.072;15.132;2024-02-14T15:26:31;10.60;88.10